Time;durP1;ratioP1;P1;durP2;ratioP2;P2;SDS_P1;SDS_P2;PMS_P1;PMS_P2;Temp;Humidity;BMP_temperature;BMP_pressure;BME280_temperature;BME280_humidity;BME280_pressure;Samples;Min_cycle;Max_cycle;Signal;HPM_P1;HPM_P2
2023/02/18 00:02:12;;;;;;;7.43;6.72;;;;;;;9.36;100.00;101719.34;6078874;23;20050;-70
2023/02/18 00:04:38;;;;;;;6.75;6.15;;;;;;;10.21;100.00;101855.63;6102732;23;20022;-70
2023/02/18 00:07:05;;;;;;;7.03;6.30;;;;;;;10.10;100.00;101839.34;6079700;23;20655;-70
2023/02/18 00:09:31;;;;;;;6.68;6.07;;;;;;;9.99;100.00;101801.22;6076052;23;20077;-70
2023/02/18 00:11:57;;;;;;;7.25;6.53;;;;;;;10.14;100.00;101839.22;6106179;23;20019;-70
2023/02/18 00:14:24;;;;;;;8.73;6.18;;;;;;;10.18;100.00;101847.84;6081244;23;20520;-70
2023/02/18 00:16:50;;;;;;;8.90;7.20;;;;;;;10.51;100.00;101889.69;6102331;23;20025;-71
2023/02/18 00:19:18;;;;;;;9.00;6.00;;;;;;;10.51;100.00;101890.53;6081756;23;20018;-70
2023/02/18 00:21:45;;;;;;;7.80;7.00;;;;;;;9.92;100.00;101777.84;6057109;23;20104;-70
2023/02/18 00:24:14;;;;;;;7.25;6.63;;;;;;;10.40;100.00;101866.41;6098436;23;20028;-70
2023/02/18 00:26:41;;;;;;;8.07;6.35;;;;;;;10.25;100.00;101857.25;6082267;23;20018;-70
2023/02/18 00:29:07;;;;;;;8.57;7.30;;;;;;;8.28;100.00;101516.63;6081500;23;20062;-71
2023/02/18 00:31:35;;;;;;;9.02;6.97;;;;;;;10.43;100.00;101865.47;6076700;23;20019;-71
2023/02/18 00:34:04;;;;;;;8.35;6.97;;;;;;;10.24;100.00;101818.78;6048003;23;20595;-70
2023/02/18 00:36:31;;;;;;;8.52;7.38;;;;;;;10.40;100.00;101845.41;6052715;23;20033;-70
2023/02/18 00:38:59;;;;;;;7.60;6.68;;;;;;;10.27;100.00;101825.72;6074169;23;20080;-70
2023/02/18 00:41:27;;;;;;;7.68;6.85;;;;;;;10.45;100.00;101847.91;6053249;23;20015;-69
2023/02/18 00:43:53;;;;;;;7.53;6.82;;;;;;;10.42;100.00;101848.84;6104637;23;20544;-70
2023/02/18 00:46:21;;;;;;;8.13;7.30;;;;;;;10.41;100.00;101855.00;6078131;23;20032;-70
2023/02/18 00:48:48;;;;;;;8.82;7.25;;;;;;;10.25;100.00;101825.75;6100357;23;20029;-71
2023/02/18 00:51:15;;;;;;;8.45;7.70;;;;;;;10.42;100.00;101847.97;6054774;23;20107;-71
2023/02/18 00:53:41;;;;;;;7.45;6.82;;;;;;;10.22;100.00;101825.84;6080230;23;20092;-70
2023/02/18 00:56:08;;;;;;;6.95;6.40;;;;;;;10.41;100.00;101851.53;6103099;23;20033;-70
2023/02/18 00:58:35;;;;;;;6.88;6.18;;;;;;;10.39;100.00;101846.31;6077953;23;20624;-70
2023/02/18 01:01:04;;;;;;;8.35;7.40;;;;;;;9.89;100.00;101770.97;6096575;23;20073;-70
2023/02/18 01:03:33;;;;;;;7.32;6.63;;;;;;;10.37;100.00;101843.75;6082765;23;20036;-71
2023/02/18 01:05:59;;;;;;;7.43;6.63;;;;;;;9.94;100.00;101776.03;6081674;23;20022;-71
2023/02/18 01:08:26;;;;;;;7.25;6.32;;;;;;;9.82;100.00;101739.72;6080381;23;20014;-70
2023/02/18 01:10:56;;;;;;;7.55;6.90;;;;;;;10.33;100.00;101828.16;6080194;23;20030;-70
2023/02/18 01:13:23;;;;;;;6.40;5.72;;;;;;;10.35;100.00;101826.34;6106266;23;20546;-71
2023/02/18 01:15:50;;;;;;;6.82;6.30;;;;;;;10.35;100.00;101832.44;6080300;23;20040;-72
2023/02/18 01:18:17;;;;;;;7.15;6.50;;;;;;;10.14;100.00;101793.75;6072143;23;20642;-70
2023/02/18 01:20:44;;;;;;;7.88;6.32;;;;;;;8.88;100.00;101585.50;6052086;23;20018;-71
2023/02/18 01:23:12;;;;;;;8.32;6.70;;;;;;;10.03;100.00;101767.88;6077926;23;20554;-70
2023/02/18 01:25:39;;;;;;;11.27;6.72;;;;;;;10.33;100.00;101823.78;6059860;23;20022;-70
2023/02/18 01:28:08;;;;;;;6.25;5.75;;;;;;;9.86;100.00;101739.59;6099398;23;20025;-72
2023/02/18 01:30:34;;;;;;;8.20;6.03;;;;;;;10.21;100.00;101792.66;6076722;23;20790;-71
2023/02/18 01:33:01;;;;;;;7.00;6.40;;;;;;;10.36;100.00;101828.03;6080626;23;20017;-70
2023/02/18 01:35:27;;;;;;;6.05;5.55;;;;;;;10.32;100.00;101819.44;6077147;23;20666;-70
2023/02/18 01:37:54;;;;;;;6.20;5.57;;;;;;;10.32;100.00;101819.44;6077830;23;20605;-70
2023/02/18 01:40:24;;;;;;;6.60;5.90;;;;;;;10.16;100.00;101791.94;6081471;23;20042;-70
2023/02/18 01:42:50;;;;;;;6.10;5.50;;;;;;;10.21;100.00;101794.44;6100818;23;20102;-70
2023/02/18 01:45:32;;;;;;;5.57;5.05;;;;;;;10.30;100.00;101807.25;6075749;23;20025;-70
2023/02/18 01:48:02;;;;;;;6.22;5.80;;;;;;;10.30;100.00;101810.75;6076522;23;20042;-71
2023/02/18 01:50:30;;;;;;;5.78;5.38;;;;;;;10.10;100.00;101779.91;6101019;23;20075;-70
2023/02/18 01:52:57;;;;;;;6.53;6.03;;;;;;;9.56;100.00;101675.91;6076721;23;20036;-70
2023/02/18 01:55:23;;;;;;;6.03;5.47;;;;;;;10.27;100.00;101802.94;6081781;23;20098;-70
2023/02/18 01:57:49;;;;;;;5.90;5.38;;;;;;;9.87;100.00;101727.34;6079813;23;20026;-71
2023/02/18 02:00:20;;;;;;;6.15;5.55;;;;;;;9.89;100.00;101731.63;6053471;23;20022;-70
2023/02/18 02:02:50;;;;;;;6.60;6.03;;;;;;;10.19;100.00;101783.97;6077816;23;20002;-70
2023/02/18 02:05:18;;;;;;;7.70;6.05;;;;;;;10.14;100.00;101772.78;6094264;23;20104;-69
2023/02/18 02:07:47;;;;;;;6.30;5.80;;;;;;;9.77;100.00;101724.16;6048849;23;20031;-70
2023/02/18 02:10:15;;;;;;;6.20;5.72;;;;;;;9.98;100.00;101749.69;6076210;23;20036;-70
2023/02/18 02:13:14;;;;;;;5.85;5.40;;;;;;;10.13;100.00;101779.78;6077295;23;20079;-70
2023/02/18 02:15:44;;;;;;;6.15;5.65;;;;;;;9.98;100.00;101749.69;6096090;23;20030;-70
2023/02/18 02:18:46;;;;;;;5.53;5.03;;;;;;;10.04;100.00;101759.09;6079156;23;20041;-70
2023/02/18 02:21:55;;;;;;;6.72;5.45;;;;;;;8.88;100.00;101561.94;6075411;23;20029;-70
2023/02/18 02:24:55;;;;;;;5.57;5.18;;;;;;;10.04;100.00;101759.09;6058416;23;20028;-70
2023/02/18 02:27:59;;;;;;;6.15;5.57;;;;;;;10.04;100.00;101753.00;6077744;23;20029;-69
2023/02/18 02:30:31;;;;;;;5.32;5.03;;;;;;;9.97;100.00;101739.25;6093214;23;20017;-70
2023/02/18 02:33:45;;;;;;;6.95;6.35;;;;;;;9.98;100.00;101730.47;6075692;23;20013;-70
2023/02/18 02:36:25;;;;;;;6.18;5.72;;;;;;;9.96;100.00;101727.03;6048844;23;20646;-71
2023/02/18 02:38:58;;;;;;;5.80;5.35;;;;;;;9.94;100.00;101721.84;6072414;23;20067;-70
2023/02/18 02:41:56;;;;;;;6.18;5.60;;;;;;;9.96;100.00;101720.03;6098015;23;20095;-71
2023/02/18 02:44:43;;;;;;;6.68;6.07;;;;;;;9.99;100.00;101701.56;6075933;23;20014;-71
2023/02/18 02:47:26;;;;;;;5.93;5.53;;;;;;;9.99;100.00;101693.69;6076458;23;20030;-70
2023/02/18 02:50:14;;;;;;;8.07;5.70;;;;;;;9.03;100.00;101532.66;6075469;23;20022;-70
2023/02/18 02:52:46;;;;;;;5.63;5.22;;;;;;;10.07;100.00;101690.81;6051230;23;20020;-70
2023/02/18 02:55:13;;;;;;;;;;;;;;;10.03;100.00;101696.22;6074213;23;20068;-70
2023/02/18 02:57:43;;;;;;;5.93;5.43;;;;;;;10.14;100.00;101692.34;6075308;23;20785;-70
2023/02/18 03:00:11;;;;;;;8.50;6.72;;;;;;;10.12;100.00;101690.66;6080482;23;20029;-69
2023/02/18 03:02:57;;;;;;;5.80;5.35;;;;;;;10.10;100.00;101679.34;6079633;23;20034;-69
2023/02/18 03:05:42;;;;;;;5.13;4.80;;;;;;;10.10;100.00;101689.84;6069388;23;20083;-70
2023/02/18 03:08:24;;;;;;;5.25;4.95;;;;;;;10.13;100.00;101689.75;6076105;23;20026;-70
2023/02/18 03:11:28;;;;;;;6.22;5.68;;;;;;;10.08;100.00;101692.56;6054664;23;20034;-70
2023/02/18 03:14:17;;;;;;;5.75;5.25;;;;;;;10.14;100.00;101673.97;5987412;23;20018;-70
2023/02/18 03:16:57;;;;;;;6.10;4.78;;;;;;;10.20;100.00;101672.88;6047492;23;20041;-70
2023/02/18 03:19:38;;;;;;;4.95;4.65;;;;;;;10.12;100.00;101659.19;6049671;23;20034;-71
2023/02/18 03:22:12;;;;;;;5.75;5.35;;;;;;;10.16;100.00;101669.53;6074553;23;20036;-70
2023/02/18 03:24:41;;;;;;;5.10;4.80;;;;;;;9.64;100.00;101568.19;6075916;23;20385;-70
2023/02/18 03:27:14;;;;;;;5.68;5.30;;;;;;;10.10;100.00;101654.00;6081788;23;20079;-70
2023/02/18 03:29:45;;;;;;;6.47;5.68;;;;;;;10.23;100.00;101669.31;6080162;23;20036;-70
2023/02/18 03:32:17;;;;;;;5.30;4.93;;;;;;;10.13;100.00;101653.88;6105220;23;20014;-70
2023/02/18 03:34:49;;;;;;;5.78;5.28;;;;;;;10.19;100.00;101666.78;6078095;23;20026;-70
2023/02/18 03:37:16;;;;;;;5.55;5.10;;;;;;;10.16;100.00;101645.94;6082601;23;20041;-70
2023/02/18 03:39:48;;;;;;;5.32;4.90;;;;;;;10.18;100.00;101658.97;6080804;23;20021;-70
2023/02/18 03:42:17;;;;;;;6.47;5.87;;;;;;;9.97;100.00;101637.81;6097624;23;20017;-71
2023/02/18 03:44:44;;;;;;;6.00;5.50;;;;;;;10.13;100.00;101659.13;6078704;23;20037;-71
2023/02/18 03:47:10;;;;;;;6.05;5.55;;;;;;;10.10;100.00;101658.38;6058323;23;20029;-70
2023/02/18 03:49:37;;;;;;;5.50;5.10;;;;;;;9.92;100.00;101637.16;6084471;23;20033;-71
2023/02/18 03:52:03;;;;;;;6.63;6.07;;;;;;;9.83;100.00;101629.59;6077398;23;20042;-70
2023/02/18 03:54:30;;;;;;;5.30;4.90;;;;;;;9.66;100.00;101616.19;6104880;23;20185;-71
2023/02/18 03:56:56;;;;;;;5.65;5.25;;;;;;;9.58;100.00;101611.19;6036694;23;20023;-70
2023/02/18 03:59:23;;;;;;;5.07;4.75;;;;;;;9.62;100.00;101583.13;6079758;23;20052;-71
2023/02/18 04:01:49;;;;;;;5.13;4.82;;;;;;;9.61;100.00;101587.53;6083319;23;20500;-71
2023/02/18 04:04:16;;;;;;;5.28;4.93;;;;;;;9.91;100.00;101632.78;6078404;23;20025;-70
2023/02/18 04:06:45;;;;;;;5.20;4.88;;;;;;;9.87;100.00;101618.09;6075098;23;20034;-70
2023/02/18 04:09:11;;;;;;;8.43;5.40;;;;;;;9.93;100.00;101646.72;6077441;23;20657;-70
2023/02/18 04:11:39;;;;;;;6.03;5.63;;;;;;;9.91;100.00;101609.19;6080054;23;20026;-70
2023/02/18 04:14:06;;;;;;;4.97;4.68;;;;;;;9.90;100.00;101614.50;6103991;23;20025;-70
2023/02/18 04:16:33;;;;;;;5.05;4.75;;;;;;;9.86;100.00;101594.53;6077446;23;20620;-71
2023/02/18 04:18:59;;;;;;;4.90;4.60;;;;;;;9.72;100.00;101574.03;6080439;23;20017;-70
2023/02/18 04:21:26;;;;;;;4.95;4.65;;;;;;;9.21;100.00;101498.94;6084845;23;20033;-70
2023/02/18 04:23:52;;;;;;;4.68;4.47;;;;;;;9.81;100.00;101588.59;6084797;23;20010;-70
2023/02/18 04:26:18;;;;;;;5.00;4.70;;;;;;;9.63;100.00;101559.50;6082004;23;20021;-70
2023/02/18 04:28:45;;;;;;;11.15;4.85;;;;;;;9.75;100.00;101592.28;6051397;23;20287;-71
2023/02/18 04:31:11;;;;;;;5.03;4.75;;;;;;;9.75;100.00;101593.13;6052110;23;20037;-69
2023/02/18 04:33:38;;;;;;;5.72;5.30;;;;;;;9.24;100.00;101511.91;6096399;23;20028;-70
2023/02/18 04:36:05;;;;;;;5.38;4.93;;;;;;;9.70;100.00;101588.97;6077004;23;20029;-70
2023/02/18 04:38:31;;;;;;;6.15;5.32;;;;;;;8.82;100.00;101446.97;6055077;23;20079;-70
2023/02/18 04:40:58;;;;;;;5.38;4.97;;;;;;;8.68;100.00;101421.25;6082681;23;20531;-70
2023/02/18 04:43:24;;;;;;;4.40;4.20;;;;;;;9.01;100.00;101482.13;6082286;23;20603;-71
2023/02/18 04:45:51;;;;;;;5.45;5.13;;;;;;;9.38;100.00;101535.88;6077137;23;20051;-71
2023/02/18 04:48:17;;;;;;;4.55;4.35;;;;;;;9.68;100.00;101577.66;6105715;23;20045;-71
2023/02/18 04:50:44;;;;;;;5.28;4.95;;;;;;;8.99;100.00;101463.84;6078606;23;20033;-71
2023/02/18 04:53:10;;;;;;;4.45;4.25;;;;;;;9.19;100.00;101501.59;6075251;23;20818;-71
2023/02/18 04:55:37;;;;;;;5.28;4.97;;;;;;;9.28;100.00;101517.03;6104791;23;20025;-72
2023/02/18 04:58:03;;;;;;;5.43;5.07;;;;;;;9.18;100.00;101503.38;6078071;23;20066;-72
2023/02/18 05:00:30;;;;;;;5.30;4.95;;;;;;;9.59;100.00;101556.13;6077219;23;20043;-72
2023/02/18 05:02:56;;;;;;;4.78;4.47;;;;;;;9.41;100.00;101538.41;6083162;23;20025;-71
2023/02/18 05:05:23;;;;;;;4.72;4.53;;;;;;;9.60;100.00;101541.25;6083852;23;20053;-72
2023/02/18 05:07:49;;;;;;;4.68;4.47;;;;;;;8.53;100.00;101380.75;6108730;23;20021;-71
2023/02/18 05:10:17;;;;;;;5.00;4.60;;;;;;;9.64;100.00;101565.59;6072304;23;20079;-72
2023/02/18 05:12:43;;;;;;;4.97;4.65;;;;;;;9.65;100.00;101556.81;6080136;23;20099;-72
2023/02/18 05:15:10;;;;;;;5.18;4.88;;;;;;;9.03;100.00;101469.84;6104547;23;20030;-73
2023/02/18 05:17:36;;;;;;;5.63;5.22;;;;;;;9.13;100.00;101488.72;6078819;23;20030;-73
2023/02/18 05:20:03;;;;;;;5.18;4.85;;;;;;;8.96;100.00;101447.38;6099389;23;20497;-71
2023/02/18 05:22:30;;;;;;;5.07;4.78;;;;;;;9.23;100.00;101499.75;6055304;23;20022;-72
2023/02/18 05:24:56;;;;;;;6.45;5.90;;;;;;;8.56;100.00;101380.69;6075584;23;20602;-70
2023/02/18 05:27:23;;;;;;;4.90;4.60;;;;;;;9.08;100.00;101470.53;6079338;23;20589;-70
2023/02/18 05:29:49;;;;;;;5.50;5.00;;;;;;;9.61;100.00;101560.47;6078968;23;20393;-72
2023/02/18 05:32:15;;;;;;;5.32;4.93;;;;;;;9.45;100.00;101524.28;6094803;23;20032;-71
2023/02/18 05:34:42;;;;;;;5.20;4.80;;;;;;;9.56;100.00;101542.25;6076931;23;20049;-71
2023/02/18 05:37:08;;;;;;;4.82;4.53;;;;;;;9.57;100.00;101529.09;6098626;23;20036;-71
2023/02/18 05:39:35;;;;;;;4.78;4.47;;;;;;;9.16;100.00;101472.88;6077527;23;20068;-71
2023/02/18 05:42:02;;;;;;;4.72;4.43;;;;;;;9.55;100.00;101559.75;6078337;23;22159;-71
2023/02/18 05:44:31;;;;;;;5.38;5.07;;;;;;;9.21;100.00;101468.34;6101478;23;20029;-71
2023/02/18 05:47:03;;;;;;;5.10;4.80;;;;;;;9.54;100.00;101516.13;6077239;23;20030;-72
2023/02/18 05:49:31;;;;;;;5.45;4.95;;;;;;;9.37;100.00;101490.50;6103521;23;20035;-73
2023/02/18 05:52:00;;;;;;;5.10;4.80;;;;;;;9.56;100.00;101508.19;6076935;23;20064;-72
2023/02/18 05:54:29;;;;;;;4.60;4.35;;;;;;;9.49;100.00;101504.09;6075487;23;20025;-72
2023/02/18 05:56:55;;;;;;;4.80;4.50;;;;;;;9.08;100.00;101433.00;6081349;23;20020;-72
2023/02/18 05:59:22;;;;;;;4.53;4.32;;;;;;;9.35;100.00;101480.97;6094205;23;20029;-72
2023/02/18 06:01:49;;;;;;;4.40;4.20;;;;;;;9.48;100.00;101505.84;6081658;23;20018;-72
2023/02/18 06:04:16;;;;;;;5.20;4.85;;;;;;;9.49;100.00;101489.22;6080513;23;20045;-72
2023/02/18 06:06:42;;;;;;;4.50;4.30;;;;;;;9.15;100.00;101427.50;6080177;23;20037;-72
2023/02/18 06:09:09;;;;;;;5.50;5.15;;;;;;;9.47;100.00;101485.78;6099290;23;20032;-73
2023/02/18 06:11:35;;;;;;;6.40;5.22;;;;;;;9.52;100.00;101488.25;6079745;23;20042;-72
2023/02/18 06:14:02;;;;;;;4.40;4.20;;;;;;;9.13;100.00;101418.00;6080501;23;20016;-72
2023/02/18 06:16:29;;;;;;;4.57;4.35;;;;;;;9.36;100.00;101466.97;6077240;23;20030;-72
2023/02/18 06:18:56;;;;;;;4.70;4.50;;;;;;;9.51;100.00;101490.00;6073705;23;20072;-72
2023/02/18 06:21:22;;;;;;;4.60;4.40;;;;;;;8.70;100.00;101347.03;6051432;23;20088;-71
2023/02/18 06:23:49;;;;;;;7.88;4.55;;;;;;;9.57;100.00;101481.09;6096091;23;20014;-73
2023/02/18 06:26:15;;;;;;;4.70;4.50;;;;;;;9.43;100.00;101458.00;6079438;23;20619;-72
2023/02/18 06:28:42;;;;;;;4.47;4.25;;;;;;;9.56;100.00;101480.25;6079065;23;20109;-72
2023/02/18 06:31:08;;;;;;;4.93;4.53;;;;;;;9.15;100.00;101411.81;6077729;23;20026;-72
2023/02/18 06:33:35;;;;;;;4.72;4.50;;;;;;;9.33;100.00;101451.38;6095979;23;20090;-72
2023/02/18 06:36:07;;;;;;;5.07;4.78;;;;;;;9.61;100.00;101474.81;6048649;23;20097;-73
2023/02/18 06:38:34;;;;;;;4.80;4.50;;;;;;;9.62;100.00;101471.28;6097093;23;20103;-72
2023/02/18 06:41:01;;;;;;;4.28;4.07;;;;;;;9.51;100.00;101442.84;6075302;23;20030;-71
2023/02/18 06:43:27;;;;;;;4.38;4.18;;;;;;;9.63;100.00;101470.38;6077377;23;20096;-71
2023/02/18 06:45:54;;;;;;;4.40;4.20;;;;;;;9.35;100.00;101411.09;6074452;23;20038;-71
2023/02/18 06:48:20;;;;;;;4.40;4.20;;;;;;;8.82;100.00;101342.28;6079464;23;20033;-72
2023/02/18 06:50:47;;;;;;;4.55;4.35;;;;;;;9.61;100.00;101434.66;5967890;23;20085;-71
2023/02/18 06:53:15;;;;;;;5.65;5.35;;;;;;;9.78;100.00;101466.34;6096091;23;20032;-69
2023/02/18 06:55:43;;;;;;;4.78;4.53;;;;;;;9.73;100.00;101463.06;6047760;23;20022;-69
2023/02/18 06:58:11;;;;;;;4.85;4.45;;;;;;;9.79;100.00;101468.91;6075011;23;20042;-70
2023/02/18 07:00:38;;;;;;;4.80;4.50;;;;;;;9.79;100.00;101473.31;6097789;23;20063;-70
2023/02/18 07:03:06;;;;;;;4.40;4.20;;;;;;;9.77;100.00;101473.34;6081595;23;20026;-70
2023/02/18 07:05:33;;;;;;;4.63;4.30;;;;;;;9.35;100.00;101391.91;6081092;23;20507;-69
2023/02/18 07:07:59;;;;;;;4.18;3.97;;;;;;;9.89;100.00;101477.31;6080523;23;22285;-69
2023/02/18 07:10:26;;;;;;;4.40;4.20;;;;;;;9.94;100.00;101474.50;6098625;23;20104;-69
2023/02/18 07:12:52;;;;;;;4.30;4.10;;;;;;;9.94;100.00;101480.63;6081495;23;20040;-69
2023/02/18 07:15:23;;;;;;;4.10;3.90;;;;;;;9.98;100.00;101478.72;6079482;23;20073;-69
2023/02/18 07:17:50;;;;;;;4.10;3.90;;;;;;;9.99;100.00;101485.69;6081928;23;20614;-71
2023/02/18 07:20:18;;;;;;;4.95;4.65;;;;;;;9.85;100.00;101482.72;6080588;23;20027;-69
2023/02/18 07:22:45;;;;;;;4.25;4.05;;;;;;;10.00;100.00;101503.13;6081204;23;20018;-70
2023/02/18 07:25:13;;;;;;;4.10;3.90;;;;;;;9.85;100.00;101478.31;6080173;23;20038;-70
2023/02/18 07:27:39;;;;;;;4.35;4.15;;;;;;;9.61;100.00;101414.56;6060709;23;20032;-70
2023/02/18 07:30:07;;;;;;;4.40;4.13;;;;;;;10.01;100.00;101469.91;6050625;23;20033;-70
2023/02/18 07:32:33;;;;;;;4.40;4.20;;;;;;;9.72;100.00;101430.75;6098030;23;20460;-69
2023/02/18 07:35:00;;;;;;;4.45;4.25;;;;;;;9.07;100.00;101335.28;6054233;23;20518;-69
2023/02/18 07:37:27;;;;;;;4.20;4.00;;;;;;;10.09;100.00;101483.59;6074600;23;20180;-70
2023/02/18 07:39:53;;;;;;;4.30;4.10;;;;;;;9.82;100.00;101444.34;6083455;23;20079;-68
2023/02/18 07:42:19;;;;;;;4.70;4.50;;;;;;;10.07;100.00;101475.75;6081556;23;20839;-69
2023/02/18 07:44:46;;;;;;;4.07;3.88;;;;;;;10.01;100.00;101517.09;6081052;23;20029;-70
2023/02/18 07:47:16;;;;;;;4.72;4.38;;;;;;;9.93;100.00;101505.13;6077649;23;20042;-70
2023/02/18 07:49:42;;;;;;;4.63;4.32;;;;;;;9.81;100.00;101504.72;6081182;23;20183;-69
2023/02/18 07:52:08;;;;;;;4.38;4.18;;;;;;;9.13;100.00;101425.88;6101999;23;20480;-69
2023/02/18 07:54:35;;;;;;;4.03;3.83;;;;;;;9.34;100.00;101476.63;6081267;23;20022;-71
2023/02/18 07:57:01;;;;;;;4.57;4.38;;;;;;;9.51;100.00;101502.28;6082281;23;20736;-69
2023/02/18 07:59:28;;;;;;;4.30;4.10;;;;;;;9.32;100.00;101486.31;6082225;23;20020;-69
2023/02/18 08:01:54;;;;;;;4.30;4.10;;;;;;;9.68;100.00;101543.59;6099767;23;20406;-70
2023/02/18 08:04:21;;;;;;;4.50;4.20;;;;;;;9.70;100.00;101545.28;6057004;23;20030;-70
2023/02/18 08:06:48;;;;;;;4.45;4.15;;;;;;;9.73;100.00;101546.94;6055805;23;20352;-70
2023/02/18 08:09:16;;;;;;;5.10;4.60;;;;;;;9.69;100.00;101554.03;6099612;23;20141;-69
2023/02/18 08:11:43;;;;;;;4.68;4.22;;;;;;;9.58;100.00;101545.69;6077750;23;20034;-69
2023/02/18 08:14:09;;;;;;;4.50;4.30;;;;;;;9.59;100.00;101550.03;6082163;23;20010;-70
2023/02/18 08:16:36;;;;;;;4.47;4.28;;;;;;;9.41;100.00;101548.03;6104501;23;20204;-70
2023/02/18 08:19:03;;;;;;;4.25;4.05;;;;;;;8.98;100.00;101484.84;6077908;23;20093;-70
2023/02/18 08:21:29;;;;;;;4.30;4.10;;;;;;;8.96;100.00;101492.75;6074927;23;20029;-69
2023/02/18 08:23:57;;;;;;;4.40;4.20;;;;;;;9.28;100.00;101564.16;6080536;23;20096;-69
2023/02/18 08:26:24;;;;;;;5.38;4.85;;;;;;;9.24;100.00;101561.69;6058909;23;20033;-70
2023/02/18 08:28:53;;;;;;;4.43;4.20;;;;;;;9.25;100.00;101564.25;6104467;23;20031;-69
2023/02/18 08:31:23;;;;;;;4.95;4.65;;;;;;;8.97;100.00;101527.63;6055816;23;20101;-70
2023/02/18 08:33:52;;;;;;;4.65;4.43;;;;;;;9.07;100.00;101570.94;6081004;23;20014;-69
2023/02/18 08:36:18;;;;;;;4.18;3.97;;;;;;;9.09;100.00;101542.94;6047984;23;20466;-69
2023/02/18 08:38:45;;;;;;;5.00;4.50;;;;;;;8.09;100.00;101388.22;6079298;23;20091;-69
2023/02/18 08:41:13;;;;;;;4.00;3.80;;;;;;;9.19;100.00;101585.41;6101208;23;20035;-70
2023/02/18 08:43:40;;;;;;;4.63;4.38;;;;;;;8.76;100.00;101497.78;6079299;23;20054;-69
2023/02/18 08:46:07;;;;;;;8.05;5.10;;;;;;;9.18;100.00;101550.50;6098405;23;20073;-69
2023/02/18 08:48:41;;;;;;;5.45;4.18;;;;;;;9.29;100.00;101568.47;6077352;23;20028;-70
2023/02/18 08:51:20;;;;;;;5.63;4.22;;;;;;;9.46;100.00;101556.59;6077798;23;20511;-69
2023/02/18 08:53:48;;;;;;;4.25;4.05;;;;;;;9.54;100.00;101551.94;6079840;23;20034;-69
2023/02/18 08:56:16;;;;;;;5.10;4.00;;;;;;;9.65;100.00;101547.19;6074455;23;20036;-69
2023/02/18 08:58:42;;;;;;;4.53;4.18;;;;;;;9.52;100.00;101520.56;6076826;23;20030;-69
2023/02/18 09:01:11;;;;;;;4.72;4.40;;;;;;;9.33;100.00;101503.75;6078631;23;20097;-69
2023/02/18 09:03:39;;;;;;;10.82;4.78;;;;;;;9.73;100.00;101544.31;6066415;23;20045;-68
2023/02/18 09:06:06;;;;;;;4.70;4.40;;;;;;;9.64;100.00;101547.22;6095910;23;20060;-69
2023/02/18 09:08:32;;;;;;;4.82;4.03;;;;;;;9.44;100.00;101503.38;6053696;23;20026;-69
2023/02/18 09:11:03;;;;;;;4.20;4.00;;;;;;;9.14;100.00;101457.25;6077950;23;20045;-69
2023/02/18 09:13:32;;;;;;;5.90;4.78;;;;;;;9.41;100.00;101493.03;6099161;23;20033;-69
2023/02/18 09:16:03;;;;;;;8.10;5.65;;;;;;;9.54;100.00;101502.16;6080155;23;20025;-70
2023/02/18 09:18:30;;;;;;;5.13;4.75;;;;;;;9.67;100.00;101527.03;6094850;23;20029;-69
2023/02/18 09:20:58;;;;;;;11.23;5.75;;;;;;;9.77;100.00;101509.22;6078948;23;20022;-70
2023/02/18 09:23:26;;;;;;;9.00;5.40;;;;;;;9.70;100.00;101494.59;6077349;23;20082;-70
2023/02/18 09:25:53;;;;;;;14.57;7.20;;;;;;;9.54;100.00;101460.22;6074030;23;20052;-67
2023/02/18 09:28:20;;;;;;;7.15;6.55;;;;;;;9.49;100.00;101438.59;6081349;23;20021;-69
2023/02/18 09:30:46;;;;;;;7.18;6.53;;;;;;;9.75;100.00;101479.56;6094942;23;20030;-69
2023/02/18 09:33:13;;;;;;;6.25;5.60;;;;;;;10.01;100.00;101511.88;6079002;23;20507;-69
2023/02/18 09:35:42;;;;;;;6.30;5.68;;;;;;;9.94;100.00;101505.97;6053894;23;20077;-70
2023/02/18 09:38:15;;;;;;;5.57;4.78;;;;;;;9.87;100.00;101488.75;6076255;23;20715;-70
2023/02/18 09:40:46;;;;;;;4.80;4.53;;;;;;;9.75;100.00;101469.09;6079005;23;20100;-69
2023/02/18 09:43:47;;;;;;;4.70;4.50;;;;;;;9.86;100.00;101484.41;6080348;23;20503;-69
2023/02/18 09:46:31;;;;;;;5.55;4.72;;;;;;;9.63;100.00;101443.34;6053069;23;20025;-69
2023/02/18 09:49:03;;;;;;;5.60;4.30;;;;;;;9.92;100.00;101477.19;6095255;23;20013;-70
2023/02/18 09:51:29;;;;;;;5.03;4.60;;;;;;;9.95;100.00;101484.94;6077592;23;20049;-69
2023/02/18 09:53:56;;;;;;;5.30;4.80;;;;;;;9.58;100.00;101427.75;6106181;23;20640;-69
2023/02/18 09:56:30;;;;;;;6.03;5.68;;;;;;;9.91;100.00;101470.22;6077282;23;20811;-69
2023/02/18 09:59:01;;;;;;;10.93;5.55;;;;;;;9.98;100.00;101481.34;6097277;23;20005;-69
2023/02/18 10:01:36;;;;;;;5.63;5.10;;;;;;;9.78;100.00;101438.38;6082463;23;20101;-69
2023/02/18 10:04:13;;;;;;;6.15;4.85;;;;;;;10.01;100.00;101476.00;6073419;23;20536;-70
2023/02/18 10:06:39;;;;;;;5.75;5.30;;;;;;;9.89;100.00;101432.72;6100407;23;20043;-69
2023/02/18 10:09:18;;;;;;;5.00;4.60;;;;;;;9.69;100.00;101383.66;6053736;23;20029;-70
2023/02/18 10:11:49;;;;;;;19.25;8.43;;;;;;;10.07;100.00;101453.94;6104165;23;20037;-69
2023/02/18 10:14:16;;;;;;;16.15;7.75;;;;;;;9.53;100.00;101351.09;6077218;23;20022;-69
2023/02/18 10:16:43;;;;;;;5.68;5.20;;;;;;;10.11;100.00;101434.53;6079414;23;20099;-69
2023/02/18 10:19:31;;;;;;;4.88;4.57;;;;;;;10.10;100.00;101423.22;6095427;23;20498;-69
2023/02/18 10:22:01;;;;;;;8.13;5.65;;;;;;;9.62;100.00;101363.84;6079778;23;20028;-69
2023/02/18 10:24:34;;;;;;;7.95;5.88;;;;;;;10.22;100.00;101442.84;6076668;23;20616;-73
2023/02/18 10:27:03;;;;;;;7.80;5.80;;;;;;;9.78;100.00;101392.94;6095758;23;20021;-71
2023/02/18 10:29:31;;;;;;;6.57;5.63;;;;;;;8.58;100.00;101198.34;6078814;23;20034;-69
2023/02/18 10:32:21;;;;;;;6.43;5.93;;;;;;;10.19;100.00;101448.22;6078322;23;20030;-69
2023/02/18 10:34:58;;;;;;;5.32;4.93;;;;;;;10.06;100.00;101410.25;6077842;23;20018;-70
2023/02/18 10:37:35;;;;;;;5.32;5.03;;;;;;;10.34;100.00;101446.78;6083721;23;20083;-70
2023/02/18 10:40:12;;;;;;;6.13;4.60;;;;;;;10.27;100.00;101451.41;6075808;23;20770;-69
2023/02/18 10:42:51;;;;;;;4.97;4.30;;;;;;;9.93;100.00;101425.59;6102264;23;20882;-70
2023/02/18 10:45:32;;;;;;;4.50;4.30;;;;;;;10.13;100.00;101464.19;6078819;23;20014;-69
2023/02/18 10:48:12;;;;;;;4.60;4.32;;;;;;;10.09;100.00;101470.47;6056124;23;20534;-70
2023/02/18 10:50:44;;;;;;;4.63;4.32;;;;;;;9.98;100.00;101486.59;6083606;23;20029;-70
2023/02/18 10:53:27;;;;;;;4.50;4.30;;;;;;;9.25;100.00;101390.53;6099068;23;20058;-70
2023/02/18 10:55:55;;;;;;;4.90;4.50;;;;;;;9.48;100.00;101479.66;6083800;23;20040;-70
2023/02/18 10:58:34;;;;;;;5.15;4.75;;;;;;;9.58;100.00;101520.34;6102372;23;20022;-69
2023/02/18 11:01:07;;;;;;;4.53;4.32;;;;;;;9.45;100.00;101497.25;6054310;23;20087;-70
2023/02/18 11:04:02;;;;;;;14.50;5.03;;;;;;;9.39;100.00;101504.41;6103860;23;20842;-71
2023/02/18 11:06:40;;;;;;;4.68;4.28;;;;;;;9.57;100.00;101523.88;6082966;23;20662;-71
2023/02/18 11:09:25;;;;;;;5.70;5.30;;;;;;;9.28;100.00;101479.47;6083529;23;20032;-70
2023/02/18 11:11:59;;;;;;;4.43;4.13;;;;;;;9.66;100.00;101516.59;6050641;23;20046;-69
2023/02/18 11:14:43;;;;;;;5.72;5.22;;;;;;;9.48;100.00;101528.56;6080357;23;20077;-69
2023/02/18 11:17:29;;;;;;;5.22;4.70;;;;;;;9.38;100.00;101512.28;6079718;23;20046;-70
2023/02/18 11:19:58;;;;;;;4.78;4.50;;;;;;;9.46;100.00;101531.25;6082887;23;20022;-71
2023/02/18 11:22:32;;;;;;;5.43;5.13;;;;;;;9.61;100.00;101529.00;6081813;23;20025;-71
2023/02/18 11:25:01;;;;;;;5.20;4.80;;;;;;;9.76;100.00;101542.44;6101777;23;20013;-71
2023/02/18 11:27:43;;;;;;;4.95;4.57;;;;;;;9.66;100.00;101532.31;6081364;23;20037;-71
2023/02/18 11:30:47;;;;;;;4.75;4.40;;;;;;;9.46;100.00;101518.16;6098944;23;20162;-70
2023/02/18 11:33:46;;;;;;;4.45;4.25;;;;;;;9.71;100.00;101559.22;5937007;24;20032;-70
2023/02/18 11:36:27;;;;;;;4.35;4.15;;;;;;;9.53;100.00;101545.00;6050335;23;20022;-70
2023/02/18 11:38:57;;;;;;;4.07;3.88;;;;;;;9.65;100.00;101512.28;6080120;23;20075;-71